createdAt,value
2023-04-18T00:01:26.814Z,21.20
2023-04-18T00:03:54.620Z,20.20
2023-04-18T00:06:22.454Z,20.60
2023-04-18T00:08:50.257Z,21.40
2023-04-18T00:11:18.042Z,21.00
2023-04-18T00:13:47.515Z,20.10
2023-04-18T00:16:15.770Z,19.90
2023-04-18T00:18:43.496Z,19.30
2023-04-18T00:21:12.165Z,19.70
2023-04-18T00:23:41.686Z,20.60
2023-04-18T00:26:09.647Z,19.30
2023-04-18T00:28:37.358Z,19.40
2023-04-18T00:31:05.364Z,19.00
2023-04-18T00:33:34.491Z,19.20
2023-04-18T00:36:02.284Z,19.00
2023-04-18T00:38:29.936Z,19.00
2023-04-18T00:40:57.769Z,18.90
2023-04-18T00:43:25.383Z,18.90
2023-04-18T00:45:53.377Z,19.20
2023-04-18T00:48:21.188Z,18.70
2023-04-18T00:50:48.893Z,18.90
2023-04-18T00:53:16.710Z,18.10
2023-04-18T00:55:44.575Z,18.00
2023-04-18T00:58:12.325Z,18.60
2023-04-18T01:00:40.855Z,17.60
2023-04-18T01:03:09.127Z,18.60
2023-04-18T01:05:38.025Z,18.80
2023-04-18T01:08:06.165Z,18.70
2023-04-18T01:10:34.011Z,18.90
2023-04-18T01:13:12.259Z,19.40
2023-04-18T01:15:41.880Z,19.40
2023-04-18T01:18:10.876Z,18.90
2023-04-18T01:20:41.647Z,19.10
2023-04-18T01:23:12.134Z,19.40
2023-04-18T01:25:39.797Z,19.10
2023-04-18T01:28:07.924Z,19.30
2023-04-18T01:30:36.008Z,18.80
2023-04-18T01:33:05.169Z,18.60
2023-04-18T01:35:33.903Z,18.70
2023-04-18T01:38:01.939Z,19.10
2023-04-18T01:40:30.275Z,19.80
2023-04-18T01:42:58.016Z,18.70
2023-04-18T01:45:25.706Z,19.00
2023-04-18T01:47:53.444Z,19.10
2023-04-18T01:50:21.105Z,20.90
2023-04-18T01:52:48.702Z,20.80
2023-04-18T01:55:16.437Z,21.20
2023-04-18T01:57:44.295Z,21.40
2023-04-18T02:00:12.637Z,20.90
2023-04-18T02:02:40.483Z,21.10
2023-04-18T02:05:08.992Z,21.60
2023-04-18T02:07:36.808Z,21.40
2023-04-18T02:10:04.964Z,20.90
2023-04-18T02:12:32.744Z,21.50
2023-04-18T02:15:00.465Z,20.70
2023-04-18T02:17:29.107Z,20.50
2023-04-18T02:19:56.773Z,21.60
2023-04-18T02:22:24.446Z,20.90
2023-04-18T02:24:53.215Z,21.20
2023-04-18T02:27:21.029Z,21.40
2023-04-18T02:29:48.631Z,21.70
2023-04-18T02:32:16.443Z,20.80
2023-04-18T02:34:44.085Z,21.30
2023-04-18T02:37:11.776Z,20.70
2023-04-18T02:39:39.542Z,21.50
2023-04-18T02:42:07.300Z,21.20
2023-04-18T02:44:34.858Z,20.90
2023-04-18T02:47:02.585Z,22.20
2023-04-18T02:49:30.320Z,22.20
2023-04-18T02:51:58.007Z,21.00
2023-04-18T02:54:25.745Z,22.30
2023-04-18T02:56:54.719Z,22.50
2023-04-18T02:59:22.462Z,21.80
2023-04-18T03:01:50.218Z,23.00
2023-04-18T03:04:17.919Z,20.90
2023-04-18T03:06:46.002Z,22.20
2023-04-18T03:09:14.034Z,21.90
2023-04-18T03:11:41.718Z,22.40
2023-04-18T03:14:09.361Z,22.70
2023-04-18T03:16:37.448Z,22.30
2023-04-18T03:19:05.762Z,22.50
2023-04-18T03:21:33.418Z,22.20
2023-04-18T03:24:01.028Z,22.20
2023-04-18T03:26:28.821Z,22.20
2023-04-18T03:28:56.503Z,22.00
2023-04-18T03:31:24.346Z,21.70
2023-04-18T03:33:51.992Z,22.20
2023-04-18T03:36:21.595Z,23.50
2023-04-18T03:38:49.251Z,22.50
2023-04-18T03:41:16.914Z,23.40
2023-04-18T03:43:44.525Z,22.20
2023-04-18T03:46:13.712Z,22.70
2023-04-18T03:48:41.377Z,22.80
2023-04-18T03:51:08.963Z,22.80
2023-04-18T03:53:36.720Z,22.70
2023-04-18T03:56:04.481Z,21.60
2023-04-18T03:58:32.101Z,22.30
2023-04-18T04:01:01.080Z,21.50
2023-04-18T04:03:28.916Z,22.50
2023-04-18T04:05:56.983Z,21.90
2023-04-18T04:08:26.421Z,21.00
2023-04-18T04:10:56.170Z,22.70
2023-04-18T04:13:23.871Z,22.00
2023-04-18T04:15:52.155Z,21.90
2023-04-18T04:18:20.234Z,23.10
2023-04-18T04:20:48.041Z,22.60
2023-04-18T04:23:15.826Z,23.10
2023-04-18T04:25:46.418Z,22.60
2023-04-18T04:28:14.219Z,23.00
2023-04-18T04:30:41.918Z,22.70
2023-04-18T04:33:09.620Z,22.10
2023-04-18T04:35:37.285Z,22.90
2023-04-18T04:38:05.728Z,22.50
2023-04-18T04:40:33.360Z,22.00
2023-04-18T04:43:01.400Z,21.60
2023-04-18T04:45:29.124Z,22.70
2023-04-18T04:47:57.144Z,22.20
2023-04-18T04:50:25.577Z,21.90
2023-04-18T04:52:56.482Z,21.30
2023-04-18T04:55:24.645Z,21.20
2023-04-18T04:57:52.358Z,21.90
2023-04-18T05:00:21.589Z,21.50
2023-04-18T05:02:49.524Z,21.50
2023-04-18T05:05:17.647Z,21.30
2023-04-18T05:07:45.485Z,20.70
2023-04-18T05:10:13.420Z,21.90
2023-04-18T05:12:41.212Z,21.80
2023-04-18T05:15:09.554Z,21.50
2023-04-18T05:17:37.312Z,20.80
2023-04-18T05:20:06.200Z,21.60
2023-04-18T05:22:33.931Z,20.70
2023-04-18T05:25:03.192Z,20.80
2023-04-18T05:27:30.967Z,20.70
2023-04-18T05:29:58.653Z,20.60
2023-04-18T05:32:26.383Z,21.00
2023-04-18T05:34:54.198Z,20.50
2023-04-18T05:37:22.592Z,21.00
2023-04-18T05:39:50.512Z,20.70
2023-04-18T05:42:18.309Z,20.60
2023-04-18T05:44:46.015Z,21.60
2023-04-18T05:47:13.788Z,20.80
2023-04-18T05:49:41.438Z,21.00
2023-04-18T05:52:09.262Z,20.70
2023-04-18T05:54:37.261Z,20.00
2023-04-18T05:57:05.022Z,20.00
2023-04-18T05:59:32.833Z,20.70
2023-04-18T06:02:00.982Z,20.90
2023-04-18T06:04:28.934Z,21.00
2023-04-18T06:06:56.876Z,20.00
2023-04-18T06:09:24.575Z,20.30
2023-04-18T06:11:52.257Z,19.50
2023-04-18T06:14:20.036Z,20.20
2023-04-18T06:16:47.895Z,19.80
2023-04-18T06:19:18.869Z,19.70
2023-04-18T06:21:48.703Z,20.10
2023-04-18T06:24:16.710Z,20.20
2023-04-18T06:26:44.625Z,19.90
2023-04-18T06:29:12.420Z,19.70
2023-04-18T06:31:42.298Z,19.90
2023-04-18T06:34:10.100Z,19.60
2023-04-18T06:36:38.766Z,19.60
2023-04-18T06:39:07.020Z,18.80
2023-04-18T06:41:34.694Z,19.90
2023-04-18T06:44:04.410Z,19.60
2023-04-18T06:46:33.643Z,19.80
2023-04-18T06:49:04.722Z,19.00
2023-04-18T06:51:33.786Z,19.00
2023-04-18T06:54:01.708Z,19.10
2023-04-18T06:56:29.662Z,19.30
2023-04-18T06:58:57.424Z,19.40
2023-04-18T07:01:25.324Z,19.60
2023-04-18T07:03:53.149Z,19.00
2023-04-18T07:06:21.516Z,19.10
2023-04-18T07:08:49.594Z,19.60
2023-04-18T07:11:18.640Z,18.90
2023-04-18T07:13:48.828Z,19.20
2023-04-18T07:16:17.207Z,17.80
2023-04-18T07:18:46.301Z,18.30
2023-04-18T07:21:14.133Z,18.50
2023-04-18T07:23:42.374Z,18.20
2023-04-18T07:26:11.468Z,18.10
2023-04-18T07:28:39.248Z,17.90
2023-04-18T07:31:11.255Z,17.50
2023-04-18T07:33:39.118Z,17.50
2023-04-18T07:36:08.371Z,16.80
2023-04-18T07:38:36.629Z,17.60
2023-04-18T07:41:04.393Z,16.80
2023-04-18T07:43:32.631Z,16.40
2023-04-18T07:46:00.690Z,16.50
2023-04-18T07:48:28.394Z,17.50
2023-04-18T07:50:56.484Z,16.20
2023-04-18T07:53:24.295Z,16.30
2023-04-18T07:55:51.987Z,15.70
2023-04-18T07:58:19.878Z,15.70
2023-04-18T08:00:47.692Z,17.40
2023-04-18T08:03:16.325Z,15.70
2023-04-18T08:05:44.166Z,18.90
2023-04-18T08:08:13.457Z,15.10
2023-04-18T08:10:41.310Z,14.80
2023-04-18T08:13:09.565Z,15.30
2023-04-18T08:15:37.455Z,14.10
2023-04-18T08:18:05.355Z,13.70
2023-04-18T08:20:34.387Z,14.30
2023-04-18T08:23:08.581Z,14.40
2023-04-18T08:25:38.274Z,13.70
2023-04-18T08:28:06.004Z,14.20
2023-04-18T08:30:34.053Z,13.60
2023-04-18T08:33:02.783Z,13.30
2023-04-18T08:35:30.758Z,13.10
2023-04-18T08:37:58.623Z,13.00
2023-04-18T08:40:26.439Z,13.30
2023-04-18T08:42:57.359Z,12.80
2023-04-18T08:45:25.137Z,12.50
2023-04-18T08:47:53.530Z,13.20
2023-04-18T08:50:21.698Z,14.50
2023-04-18T08:52:50.740Z,14.00
2023-04-18T08:55:19.595Z,12.50
2023-04-18T08:57:48.696Z,13.10
2023-04-18T09:00:18.109Z,12.50
2023-04-18T09:02:47.392Z,12.00
2023-04-18T09:05:19.474Z,11.90
2023-04-18T09:07:48.936Z,11.80
2023-04-18T09:10:34.203Z,12.70
2023-04-18T09:13:03.717Z,12.20
2023-04-18T09:15:31.923Z,12.20
2023-04-18T09:18:03.334Z,12.20
2023-04-18T09:20:41.463Z,13.30
2023-04-18T09:23:14.373Z,11.00
2023-04-18T09:25:44.780Z,11.70
2023-04-18T09:28:35.547Z,11.40
2023-04-18T09:31:04.400Z,12.00
2023-04-18T09:33:37.054Z,11.30
2023-04-18T09:36:18.804Z,11.20
2023-04-18T09:38:48.168Z,10.80
2023-04-18T09:41:19.895Z,10.10
2023-04-18T09:43:49.407Z,10.40
2023-04-18T09:46:17.902Z,10.50
2023-04-18T09:48:45.744Z,10.00
2023-04-18T09:51:16.875Z,10.60
2023-04-18T09:53:51.618Z,11.90
2023-04-18T09:56:46.042Z,9.30
2023-04-18T09:59:41.931Z,9.50
2023-04-18T10:02:23.862Z,11.10
2023-04-18T10:04:57.144Z,8.80
2023-04-18T10:07:26.821Z,9.20
2023-04-18T10:10:03.125Z,8.90
2023-04-18T10:12:33.931Z,9.50
2023-04-18T10:15:03.771Z,8.60
2023-04-18T10:20:30.486Z,10.30
2023-04-18T10:23:00.870Z,10.30
2023-04-18T10:25:37.988Z,9.70
2023-04-18T10:28:07.502Z,11.30
2023-04-18T10:30:40.236Z,10.10
2023-04-18T10:33:31.165Z,9.10
2023-04-18T10:36:05.308Z,9.80
2023-04-18T10:38:34.502Z,9.00
2023-04-18T10:41:19.685Z,9.80
2023-04-18T10:44:23.908Z,11.90
2023-04-18T10:46:52.354Z,9.20
2023-04-18T10:49:32.652Z,9.20
2023-04-18T10:52:02.398Z,11.30
2023-04-18T10:54:59.700Z,8.40
2023-04-18T10:57:48.215Z,8.90
2023-04-18T11:00:22.785Z,10.00
2023-04-18T11:02:58.045Z,9.60
2023-04-18T11:05:29.293Z,10.70
2023-04-18T11:07:59.702Z,8.30
2023-04-18T11:10:29.558Z,7.90
2023-04-18T11:13:05.623Z,8.30
2023-04-18T11:15:43.477Z,9.20
2023-04-18T11:18:13.885Z,9.70
2023-04-18T11:20:50.067Z,8.80
2023-04-18T11:23:52.897Z,8.10
2023-04-18T11:27:14.554Z,9.80
2023-04-18T11:31:03.415Z,9.10
2023-04-18T11:34:45.508Z,10.80
2023-04-18T11:38:29.600Z,12.90
2023-04-18T11:41:51.452Z,9.60
2023-04-18T11:44:26.803Z,11.80
2023-04-18T11:46:55.209Z,14.20
2023-04-18T11:49:33.077Z,10.50
2023-04-18T11:52:01.753Z,11.10
2023-04-18T11:55:27.686Z,11.40
2023-04-18T11:58:02.849Z,11.50
2023-04-18T12:00:42.695Z,11.50
2023-04-18T12:03:16.703Z,10.90
2023-04-18T12:05:49.371Z,11.10
2023-04-18T12:08:25.415Z,11.10
2023-04-18T12:10:54.579Z,12.00
2023-04-18T12:13:36.551Z,10.80
2023-04-18T12:16:07.782Z,10.70
2023-04-18T12:18:43.065Z,10.70
2023-04-18T12:23:30.632Z,9.80
2023-04-18T12:26:01.985Z,11.10
2023-04-18T12:28:34.035Z,10.70
2023-04-18T12:31:07.523Z,10.40
2023-04-18T12:33:36.808Z,10.80
2023-04-18T12:36:05.632Z,9.80
2023-04-18T12:38:33.535Z,9.90
2023-04-18T12:41:01.542Z,10.60
2023-04-18T12:43:29.396Z,13.00
2023-04-18T12:45:57.190Z,10.20
2023-04-18T12:48:25.407Z,10.00
2023-04-18T12:50:55.154Z,10.00
2023-04-18T12:53:23.152Z,11.90
2023-04-18T12:55:51.714Z,13.50
2023-04-18T12:58:20.724Z,10.10
2023-04-18T13:00:48.493Z,9.60
2023-04-18T13:03:16.490Z,9.90
2023-04-18T13:05:44.763Z,9.90
2023-04-18T13:08:17.147Z,9.40
2023-04-18T13:10:47.662Z,10.50
2023-04-18T13:13:15.549Z,11.10
2023-04-18T13:15:43.672Z,8.60
2023-04-18T13:18:11.627Z,11.90
2023-04-18T13:20:40.492Z,8.80
2023-04-18T13:23:08.182Z,10.10
2023-04-18T13:25:36.206Z,10.40
2023-04-18T13:28:04.362Z,8.70
2023-04-18T13:30:33.203Z,8.80
2023-04-18T13:33:01.393Z,10.30
2023-04-18T13:35:29.226Z,9.30
2023-04-18T13:38:05.715Z,9.40
2023-04-18T13:40:33.578Z,9.00
2023-04-18T13:43:01.452Z,8.00
2023-04-18T13:45:29.309Z,11.80
2023-04-18T13:47:57.010Z,9.70
2023-04-18T13:50:25.765Z,8.20
2023-04-18T13:52:57.237Z,8.30
2023-04-18T13:55:25.299Z,7.90
2023-04-18T13:57:53.736Z,8.50
2023-04-18T14:00:21.669Z,8.00
2023-04-18T14:02:49.691Z,8.80
2023-04-18T14:05:17.874Z,9.50
2023-04-18T14:07:46.055Z,7.20
2023-04-18T14:10:26.777Z,7.20
2023-04-18T14:13:01.854Z,6.80
2023-04-18T14:15:30.110Z,8.00
2023-04-18T14:17:58.088Z,7.10
2023-04-18T14:20:36.277Z,7.10
2023-04-18T14:23:04.203Z,7.00
2023-04-18T14:25:38.132Z,7.40
2023-04-18T14:28:13.536Z,6.80
2023-04-18T14:30:42.316Z,6.30
2023-04-18T14:33:10.465Z,6.80
2023-04-18T14:35:41.634Z,7.70
2023-04-18T14:38:09.848Z,7.60
2023-04-18T14:40:38.080Z,6.60
2023-04-18T14:43:05.948Z,6.00
2023-04-18T14:45:36.673Z,6.80
2023-04-18T14:48:08.109Z,6.30
2023-04-18T14:50:38.747Z,7.50
2023-04-18T14:53:07.160Z,6.00
2023-04-18T14:55:35.150Z,6.00
2023-04-18T14:58:03.100Z,7.30
2023-04-18T15:00:33.762Z,6.30
2023-04-18T15:03:01.702Z,5.40
2023-04-18T15:05:29.726Z,7.10
2023-04-18T15:07:58.164Z,6.50
2023-04-18T15:10:25.972Z,8.10
2023-04-18T15:12:53.673Z,8.70
2023-04-18T15:15:22.678Z,6.00
2023-04-18T15:17:50.556Z,5.80
2023-04-18T15:20:18.424Z,5.70
2023-04-18T15:22:46.123Z,6.00
2023-04-18T15:25:17.147Z,5.70
2023-04-18T15:27:44.853Z,5.90
2023-04-18T15:30:13.979Z,6.80
2023-04-18T15:32:42.234Z,5.90
2023-04-18T15:35:13.917Z,5.50
2023-04-18T15:37:41.926Z,5.60
2023-04-18T15:40:11.578Z,5.00
2023-04-18T15:42:40.737Z,4.90
2023-04-18T15:45:08.911Z,4.80
2023-04-18T15:47:37.134Z,4.80
2023-04-18T15:50:05.465Z,5.30
2023-04-18T15:52:33.355Z,4.40
2023-04-18T15:55:01.423Z,4.70
2023-04-18T15:57:32.255Z,4.70
2023-04-18T16:00:00.117Z,4.10
2023-04-18T16:02:29.523Z,4.60
2023-04-18T16:04:57.232Z,5.60
2023-04-18T16:07:24.958Z,5.20
2023-04-18T16:09:52.715Z,4.90
2023-04-18T16:12:20.324Z,4.70
2023-04-18T16:14:48.905Z,4.50
2023-04-18T16:17:16.623Z,5.20
2023-04-18T16:19:44.539Z,4.60
2023-04-18T16:22:12.793Z,4.70
2023-04-18T16:24:42.801Z,4.80
2023-04-18T16:27:10.740Z,5.20
2023-04-18T16:29:38.878Z,5.50
2023-04-18T16:32:07.223Z,5.70
2023-04-18T16:34:35.294Z,5.50
2023-04-18T16:37:03.094Z,6.60
2023-04-18T16:39:31.323Z,5.30
2023-04-18T16:41:59.360Z,5.10
2023-04-18T16:44:27.285Z,6.90
2023-04-18T16:46:55.833Z,6.50
2023-04-18T16:49:24.148Z,5.30
2023-04-18T16:51:53.389Z,5.60
2023-04-18T16:54:21.618Z,5.00
2023-04-18T16:56:50.116Z,8.80
2023-04-18T16:59:18.316Z,5.30
2023-04-18T17:01:46.734Z,6.50
2023-04-18T17:04:18.377Z,5.10
2023-04-18T17:06:46.683Z,6.20
2023-04-18T17:09:15.496Z,5.50
2023-04-18T17:11:43.632Z,5.80
2023-04-18T17:14:11.969Z,5.70
2023-04-18T17:16:41.658Z,5.60
2023-04-18T17:19:10.447Z,5.40
2023-04-18T17:21:38.457Z,5.20
2023-04-18T17:24:07.195Z,5.50
2023-04-18T17:26:36.993Z,6.40
2023-04-18T17:29:05.147Z,6.20
2023-04-18T17:31:33.193Z,5.40
2023-04-18T17:34:01.038Z,7.40
2023-04-18T17:36:30.772Z,5.80
2023-04-18T17:39:08.222Z,6.30
2023-04-18T17:41:37.983Z,6.90
2023-04-18T17:44:07.502Z,8.20
2023-04-18T17:46:35.985Z,8.10
2023-04-18T17:49:04.748Z,9.70
2023-04-18T17:51:32.778Z,10.80
2023-04-18T17:54:00.459Z,8.50
2023-04-18T17:56:30.890Z,10.20
2023-04-18T17:58:58.822Z,10.20
2023-04-18T18:01:28.786Z,11.20
2023-04-18T18:04:00.938Z,10.50
2023-04-18T18:06:46.644Z,10.60
2023-04-18T18:09:14.709Z,11.00
2023-04-18T18:11:46.534Z,10.90
2023-04-18T18:14:15.101Z,15.00
2023-04-18T18:16:43.704Z,11.00
2023-04-18T18:19:12.637Z,12.20
2023-04-18T18:21:41.521Z,11.10
2023-04-18T18:24:13.230Z,16.00
2023-04-18T18:26:41.375Z,11.10
2023-04-18T18:29:09.503Z,12.20
2023-04-18T18:31:38.250Z,14.70
2023-04-18T18:34:06.775Z,13.80
2023-04-18T18:36:34.901Z,11.90
2023-04-18T18:39:02.899Z,10.90
2023-04-18T18:41:30.739Z,11.00
2023-04-18T18:44:00.301Z,11.80
2023-04-18T18:46:29.314Z,10.20
2023-04-18T18:48:57.241Z,11.70
2023-04-18T18:51:27.270Z,12.80
2023-04-18T18:53:56.771Z,10.80
2023-04-18T18:56:24.677Z,11.50
2023-04-18T18:58:57.176Z,12.90
2023-04-18T19:01:25.265Z,10.50
2023-04-18T19:03:53.344Z,11.30
2023-04-18T19:06:21.609Z,9.50
2023-04-18T19:08:51.577Z,10.30
2023-04-18T19:11:19.668Z,11.50
2023-04-18T19:13:47.451Z,10.00
2023-04-18T19:16:15.262Z,10.50
2023-04-18T19:18:47.047Z,9.30
2023-04-18T19:21:15.864Z,10.30
2023-04-18T19:23:43.683Z,10.20
2023-04-18T19:26:11.503Z,9.40
2023-04-18T19:28:39.250Z,9.30
2023-04-18T19:31:09.212Z,10.70
2023-04-18T19:33:37.966Z,9.30
2023-04-18T19:36:06.802Z,9.40
2023-04-18T19:38:35.132Z,8.50
2023-04-18T19:41:02.795Z,10.00
2023-04-18T19:43:30.617Z,8.40
2023-04-18T19:45:59.213Z,9.30
2023-04-18T19:48:27.852Z,8.40
2023-04-18T19:50:56.423Z,8.80
2023-04-18T19:53:24.533Z,8.50
2023-04-18T19:55:53.824Z,7.70
2023-04-18T19:58:34.818Z,7.40
2023-04-18T20:01:05.862Z,8.10
2023-04-18T20:03:34.318Z,7.20
2023-04-18T20:06:02.564Z,7.40
2023-04-18T20:08:30.821Z,6.70
2023-04-18T20:10:58.618Z,7.30
2023-04-18T20:13:26.304Z,6.50
2023-04-18T20:16:12.276Z,5.80
2023-04-18T20:18:44.426Z,6.50
2023-04-18T20:21:12.294Z,7.10
2023-04-18T20:23:42.324Z,7.10
2023-04-18T20:26:10.277Z,7.10
2023-04-18T20:28:39.716Z,6.90
2023-04-18T20:31:07.736Z,7.30
2023-04-18T20:33:36.766Z,6.80
2023-04-18T20:36:06.502Z,7.30
2023-04-18T20:38:34.440Z,7.20
2023-04-18T20:41:02.927Z,7.30
2023-04-18T20:43:30.756Z,8.10
2023-04-18T20:45:58.666Z,7.50
2023-04-18T20:48:26.470Z,7.60
2023-04-18T20:50:55.775Z,7.80
2023-04-18T20:53:27.168Z,7.30
2023-04-18T20:55:55.134Z,7.20
2023-04-18T20:58:23.026Z,7.50
2023-04-18T21:00:50.936Z,8.00
2023-04-18T21:03:18.766Z,10.70
2023-04-18T21:05:46.636Z,7.40
2023-04-18T21:08:14.518Z,7.70
2023-04-18T21:10:42.361Z,7.70
2023-04-18T21:13:12.603Z,8.00
2023-04-18T21:15:42.030Z,7.70
2023-04-18T21:18:10.005Z,7.10
2023-04-18T21:23:45.158Z,8.00
2023-04-18T21:26:13.291Z,7.50
2023-04-18T21:29:06.065Z,10.60
2023-04-18T21:31:34.159Z,7.40
2023-04-18T21:34:03.856Z,7.50
2023-04-18T21:36:30.916Z,7.90
2023-04-18T21:38:58.987Z,7.90
2023-04-18T21:41:26.581Z,8.70
2023-04-18T21:43:52.983Z,7.40
2023-04-18T21:46:20.018Z,7.10
2023-04-18T21:48:47.016Z,7.20
2023-04-18T21:51:15.304Z,8.70
2023-04-18T21:53:42.314Z,7.30
2023-04-18T21:56:08.828Z,7.30
2023-04-18T21:58:35.153Z,7.00
2023-04-18T22:01:02.009Z,6.80
2023-04-18T22:03:30.851Z,7.00
2023-04-18T22:05:57.851Z,7.90
2023-04-18T22:08:25.031Z,7.40
2023-04-18T22:10:54.377Z,6.90
2023-04-18T22:13:21.688Z,7.00
2023-04-18T22:15:49.344Z,6.90
2023-04-18T22:18:15.677Z,6.90
2023-04-18T22:20:42.517Z,8.80
2023-04-18T22:23:10.049Z,6.90
2023-04-18T22:25:36.752Z,7.50
2023-04-18T22:28:04.142Z,7.10
2023-04-18T22:30:31.117Z,6.90
2023-04-18T22:32:58.481Z,8.90
2023-04-18T22:35:26.334Z,7.20
2023-04-18T22:37:52.818Z,7.50
2023-04-18T22:40:19.444Z,6.90
2023-04-18T22:42:46.119Z,6.90
2023-04-18T22:45:12.894Z,6.60
2023-04-18T22:47:39.350Z,5.90
2023-04-18T22:50:06.563Z,6.20
2023-04-18T22:52:33.858Z,6.00
2023-04-18T22:55:01.842Z,5.90
2023-04-18T22:57:28.908Z,6.80
2023-04-18T22:59:55.452Z,6.50
2023-04-18T23:02:21.866Z,7.70
2023-04-18T23:04:48.854Z,7.60
2023-04-18T23:07:16.501Z,6.90
2023-04-18T23:09:42.941Z,7.20
2023-04-18T23:12:09.293Z,7.00
2023-04-18T23:14:35.746Z,6.90
2023-04-18T23:17:02.096Z,7.00
2023-04-18T23:19:28.531Z,5.20
2023-04-18T23:21:54.986Z,6.30
2023-04-18T23:24:21.544Z,5.30
2023-04-18T23:26:47.859Z,5.30
2023-04-18T23:29:14.312Z,5.20
2023-04-18T23:31:40.778Z,5.20
2023-04-18T23:34:07.200Z,5.70
2023-04-18T23:36:33.578Z,6.40
2023-04-18T23:38:59.931Z,6.60
2023-04-18T23:41:26.311Z,6.50
2023-04-18T23:43:52.999Z,6.80
2023-04-18T23:46:19.299Z,7.20
2023-04-18T23:48:46.780Z,6.90
2023-04-18T23:51:13.152Z,7.10
2023-04-18T23:53:39.973Z,6.90
2023-04-18T23:56:06.524Z,7.30
2023-04-18T23:58:33.409Z,7.30
